createdAt,value
2017-03-16T00:00:21.152Z,0.00
2017-03-16T00:01:21.687Z,0.00
2017-03-16T00:02:22.230Z,0.00
2017-03-16T00:03:22.754Z,0.00
2017-03-16T00:04:23.281Z,0.00
2017-03-16T00:05:23.818Z,0.00
2017-03-16T00:06:24.345Z,0.00
2017-03-16T00:07:24.885Z,0.00
2017-03-16T00:08:25.418Z,0.00
2017-03-16T00:09:25.947Z,0.00
2017-03-16T00:10:26.480Z,0.00
2017-03-16T00:11:27.016Z,0.00
2017-03-16T00:12:27.545Z,0.00
2017-03-16T00:13:28.083Z,0.00
2017-03-16T00:14:28.618Z,0.00
2017-03-16T00:15:29.144Z,0.00
2017-03-16T00:16:29.683Z,0.00
2017-03-16T00:17:30.213Z,0.00
2017-03-16T00:18:30.748Z,0.00
2017-03-16T00:19:31.281Z,0.00
2017-03-16T00:20:31.811Z,0.00
2017-03-16T00:21:32.354Z,0.00
2017-03-16T00:22:33.035Z,0.00
2017-03-16T00:23:33.415Z,0.00
2017-03-16T00:24:33.945Z,0.00
2017-03-16T00:25:34.480Z,0.00
2017-03-16T00:26:35.013Z,0.00
2017-03-16T00:27:35.549Z,0.00
2017-03-16T00:28:36.229Z,0.00
2017-03-16T00:29:36.612Z,0.00
2017-03-16T00:30:37.160Z,0.00
2017-03-16T00:31:37.682Z,0.00
2017-03-16T00:32:38.215Z,0.00
2017-03-16T00:33:38.758Z,0.00
2017-03-16T00:34:39.288Z,0.00
2017-03-16T00:35:39.830Z,0.00
2017-03-16T00:36:40.366Z,0.00
2017-03-16T00:37:40.897Z,0.00
2017-03-16T00:38:41.426Z,0.00
2017-03-16T00:39:41.963Z,0.00
2017-03-16T00:40:42.498Z,0.00
2017-03-16T00:41:43.032Z,0.00
2017-03-16T00:42:43.562Z,0.00
2017-03-16T00:43:44.098Z,0.00
2017-03-16T00:44:44.634Z,0.00
2017-03-16T00:45:45.165Z,0.00
2017-03-16T00:46:45.695Z,0.00
2017-03-16T00:47:46.237Z,0.00
2017-03-16T00:48:46.778Z,0.00
2017-03-16T00:49:47.446Z,0.00
2017-03-16T00:50:47.832Z,0.00
2017-03-16T00:51:48.375Z,0.00
2017-03-16T00:52:48.901Z,0.00
2017-03-16T00:53:49.434Z,0.00
2017-03-16T00:54:49.970Z,0.00
2017-03-16T00:55:50.505Z,0.00
2017-03-16T00:56:51.037Z,0.00
2017-03-16T00:57:51.568Z,0.00
2017-03-16T00:58:52.101Z,0.00
2017-03-16T00:59:52.939Z,0.00
2017-03-16T01:00:53.165Z,0.00
2017-03-16T01:01:53.700Z,0.00
2017-03-16T01:02:54.377Z,0.00
2017-03-16T01:03:54.760Z,0.00
2017-03-16T01:04:55.290Z,0.00
2017-03-16T01:05:55.821Z,0.00
2017-03-16T01:06:56.364Z,0.00
2017-03-16T01:07:56.890Z,0.00
2017-03-16T01:08:57.421Z,0.00
2017-03-16T01:09:57.956Z,0.00
2017-03-16T01:10:58.494Z,0.00
2017-03-16T01:11:59.025Z,0.00
2017-03-16T01:12:59.561Z,0.00
2017-03-16T01:14:00.092Z,0.00
2017-03-16T01:15:00.624Z,0.00
2017-03-16T01:16:01.173Z,0.00
2017-03-16T01:17:01.707Z,0.00
2017-03-16T01:18:02.235Z,0.00
2017-03-16T01:19:02.766Z,0.00
2017-03-16T01:20:03.302Z,0.00
2017-03-16T01:21:03.829Z,0.00
2017-03-16T01:22:04.506Z,0.00
2017-03-16T01:23:04.894Z,0.00
2017-03-16T01:24:05.432Z,0.00
2017-03-16T01:25:05.962Z,0.00
2017-03-16T01:26:06.498Z,0.00
2017-03-16T01:27:07.026Z,0.00
2017-03-16T01:28:07.562Z,0.00
2017-03-16T01:29:08.094Z,0.00
2017-03-16T01:30:08.631Z,0.00
2017-03-16T01:31:09.164Z,0.00
2017-03-16T01:32:09.702Z,0.00
2017-03-16T01:33:10.226Z,0.00
2017-03-16T01:34:10.774Z,0.00
2017-03-16T01:35:11.305Z,0.00
2017-03-16T01:36:11.829Z,0.00
2017-03-16T01:37:12.359Z,0.00
2017-03-16T01:38:12.898Z,0.00
2017-03-16T01:39:13.432Z,0.00
2017-03-16T01:40:13.963Z,0.00
2017-03-16T01:41:14.505Z,0.00
2017-03-16T01:42:15.025Z,0.00
2017-03-16T01:43:15.560Z,0.00
2017-03-16T01:44:16.095Z,0.00
2017-03-16T01:45:16.644Z,0.00
2017-03-16T01:46:17.161Z,0.00
2017-03-16T01:47:17.699Z,0.00
2017-03-16T01:48:18.234Z,0.00
2017-03-16T01:49:18.765Z,0.00
2017-03-16T01:50:19.303Z,0.00
2017-03-16T01:51:19.834Z,0.00
2017-03-16T01:52:20.369Z,0.00
2017-03-16T01:53:21.048Z,0.00
2017-03-16T01:54:21.436Z,0.00
2017-03-16T01:55:21.969Z,0.00
2017-03-16T01:56:22.499Z,0.00
2017-03-16T01:57:23.036Z,0.00
2017-03-16T01:58:23.577Z,0.00
2017-03-16T01:59:24.108Z,0.00
2017-03-16T02:00:24.644Z,0.00
2017-03-16T02:01:25.178Z,0.00
2017-03-16T02:02:25.851Z,0.00
2017-03-16T02:03:26.235Z,0.00
2017-03-16T02:04:26.779Z,0.00
2017-03-16T02:05:27.318Z,0.00
2017-03-16T02:06:27.847Z,0.00
2017-03-16T02:07:28.390Z,0.00
2017-03-16T02:08:28.909Z,0.00
2017-03-16T02:09:29.436Z,0.00
2017-03-16T02:10:29.966Z,0.00
2017-03-16T02:11:30.497Z,0.00
2017-03-16T02:12:31.030Z,0.00
2017-03-16T02:13:31.559Z,0.00
2017-03-16T02:14:32.099Z,0.00
2017-03-16T02:15:32.633Z,0.00
2017-03-16T02:16:33.167Z,0.00
2017-03-16T02:17:33.693Z,0.00
2017-03-16T02:18:34.229Z,0.00
2017-03-16T02:19:34.761Z,0.00
2017-03-16T02:20:35.441Z,0.00
2017-03-16T02:21:35.828Z,0.00
2017-03-16T02:22:36.359Z,0.00
2017-03-16T02:23:36.903Z,0.00
2017-03-16T02:24:37.426Z,0.00
2017-03-16T02:25:37.958Z,0.00
2017-03-16T02:26:38.493Z,0.00
2017-03-16T02:27:39.024Z,0.00
2017-03-16T02:28:39.558Z,0.00
2017-03-16T02:29:40.093Z,0.00
2017-03-16T02:30:40.626Z,0.00
2017-03-16T02:31:41.166Z,0.00
2017-03-16T02:32:41.689Z,0.00
2017-03-16T02:33:42.220Z,0.00
2017-03-16T02:34:42.757Z,0.00
2017-03-16T02:35:43.289Z,0.00
2017-03-16T02:36:43.828Z,0.00
2017-03-16T02:37:44.372Z,0.00
2017-03-16T02:38:44.902Z,0.00
2017-03-16T02:39:45.454Z,0.00
2017-03-16T02:40:45.975Z,0.00
2017-03-16T02:41:46.510Z,0.00
2017-03-16T02:42:47.044Z,0.00
2017-03-16T02:43:47.576Z,0.00
2017-03-16T02:44:48.106Z,0.00
2017-03-16T02:45:48.632Z,0.00
2017-03-16T02:46:49.163Z,0.00
2017-03-16T02:47:49.848Z,0.00
2017-03-16T02:48:50.234Z,0.00
2017-03-16T02:49:50.761Z,0.00
2017-03-16T02:50:51.293Z,0.00
2017-03-16T02:51:51.825Z,0.00
2017-03-16T02:52:52.503Z,0.00
2017-03-16T02:53:52.892Z,0.00
2017-03-16T02:54:53.424Z,0.00
2017-03-16T02:55:53.952Z,0.00
2017-03-16T02:56:54.490Z,0.00
2017-03-16T02:57:55.016Z,0.00
2017-03-16T02:58:55.552Z,0.00
2017-03-16T02:59:56.233Z,0.00
2017-03-16T03:00:56.618Z,0.00
2017-03-16T03:01:57.151Z,0.00
2017-03-16T03:02:57.684Z,0.00
2017-03-16T03:03:58.217Z,0.00
2017-03-16T03:04:58.751Z,0.00
2017-03-16T03:05:59.432Z,0.00
2017-03-16T03:06:59.814Z,0.00
2017-03-16T03:08:00.350Z,0.00
2017-03-16T03:09:00.884Z,0.00
2017-03-16T03:10:01.408Z,0.00
2017-03-16T03:11:01.939Z,0.00
2017-03-16T03:12:02.470Z,0.00
2017-03-16T03:13:03.152Z,0.00
2017-03-16T03:14:03.538Z,0.00
2017-03-16T03:15:04.076Z,0.00
2017-03-16T03:16:04.605Z,0.00
2017-03-16T03:17:05.141Z,0.00
2017-03-16T03:18:05.677Z,0.00
2017-03-16T03:19:06.218Z,0.00
2017-03-16T03:20:06.745Z,0.00
2017-03-16T03:21:07.286Z,0.00
2017-03-16T03:22:07.820Z,0.00
2017-03-16T03:23:08.355Z,0.00
2017-03-16T03:24:08.888Z,0.00
2017-03-16T03:25:09.425Z,0.00
2017-03-16T03:26:09.965Z,0.00
2017-03-16T03:27:10.489Z,0.00
2017-03-16T03:28:11.021Z,0.00
2017-03-16T03:29:11.555Z,0.00
2017-03-16T03:30:12.087Z,0.00
2017-03-16T03:31:12.621Z,0.00
2017-03-16T03:32:13.154Z,0.00
2017-03-16T03:33:13.690Z,0.00
2017-03-16T03:34:14.368Z,0.00
2017-03-16T03:35:14.753Z,0.00
2017-03-16T03:36:15.282Z,0.00
2017-03-16T03:37:15.837Z,0.00
2017-03-16T03:38:16.500Z,0.00
2017-03-16T03:39:16.885Z,0.00
2017-03-16T03:40:17.430Z,0.00
2017-03-16T03:41:17.948Z,0.00
2017-03-16T03:42:18.481Z,0.00
2017-03-16T03:43:19.019Z,0.00
2017-03-16T03:44:19.544Z,0.00
2017-03-16T03:45:20.230Z,0.00
2017-03-16T03:46:20.763Z,0.00
2017-03-16T03:47:21.150Z,0.00
2017-03-16T03:48:21.680Z,0.00
2017-03-16T03:49:22.213Z,0.00
2017-03-16T03:50:22.745Z,0.00
2017-03-16T03:51:23.275Z,0.00
2017-03-16T03:52:23.958Z,0.00
2017-03-16T03:53:24.488Z,0.00
2017-03-16T03:54:24.874Z,0.00
2017-03-16T03:55:25.411Z,0.00
2017-03-16T03:56:25.949Z,0.00
2017-03-16T03:57:26.477Z,0.00
2017-03-16T03:58:27.011Z,0.00
2017-03-16T03:59:27.545Z,0.00
2017-03-16T04:00:28.078Z,0.00
2017-03-16T04:01:28.610Z,0.00
2017-03-16T04:02:29.153Z,0.00
2017-03-16T04:03:29.701Z,0.00
2017-03-16T04:04:30.220Z,0.00
2017-03-16T04:05:30.758Z,0.00
2017-03-16T04:06:31.296Z,0.00
2017-03-16T04:07:31.827Z,0.00
2017-03-16T04:08:32.507Z,0.00
2017-03-16T04:09:32.896Z,0.00
2017-03-16T04:10:33.575Z,0.00
2017-03-16T04:11:33.963Z,0.00
2017-03-16T04:12:34.492Z,0.00
2017-03-16T04:13:35.028Z,0.00
2017-03-16T04:14:35.568Z,0.00
2017-03-16T04:15:36.092Z,0.00
2017-03-16T04:16:36.772Z,0.00
2017-03-16T04:17:37.157Z,0.00
2017-03-16T04:18:37.689Z,0.00
2017-03-16T04:19:38.225Z,0.00
2017-03-16T04:20:38.758Z,0.00
2017-03-16T04:21:39.295Z,0.00
2017-03-16T04:22:39.827Z,0.00
2017-03-16T04:23:40.358Z,0.00
2017-03-16T04:24:41.042Z,0.00
2017-03-16T04:25:41.428Z,0.00
2017-03-16T04:26:41.971Z,0.00
2017-03-16T04:27:42.493Z,0.00
2017-03-16T04:28:43.021Z,0.00
2017-03-16T04:29:43.560Z,0.00
2017-03-16T04:30:44.091Z,0.00
2017-03-16T04:31:44.626Z,0.00
2017-03-16T04:32:45.309Z,0.00
2017-03-16T04:33:45.841Z,0.00
2017-03-16T04:34:46.220Z,0.00
2017-03-16T04:35:46.757Z,0.00
2017-03-16T04:36:47.282Z,0.00
2017-03-16T04:37:47.815Z,0.00
2017-03-16T04:38:48.352Z,0.00
2017-03-16T04:39:48.884Z,0.00
2017-03-16T04:40:49.428Z,0.00
2017-03-16T04:41:49.957Z,0.00
2017-03-16T04:42:50.492Z,0.00
2017-03-16T04:43:51.029Z,0.00
2017-03-16T04:44:51.566Z,0.00
2017-03-16T04:45:52.100Z,0.00
2017-03-16T04:46:52.629Z,0.00
2017-03-16T04:47:53.164Z,0.00
2017-03-16T04:48:53.848Z,0.00
2017-03-16T04:49:54.231Z,0.00
2017-03-16T04:50:54.758Z,0.00
2017-03-16T04:51:55.297Z,0.00
2017-03-16T04:52:55.827Z,0.00
2017-03-16T04:53:56.360Z,0.00
2017-03-16T04:54:56.892Z,0.00
2017-03-16T04:55:57.426Z,0.00
2017-03-16T04:56:57.960Z,0.00
2017-03-16T04:57:58.491Z,0.00
2017-03-16T04:58:59.032Z,0.00
2017-03-16T04:59:59.555Z,0.00
2017-03-16T05:01:00.115Z,0.00
2017-03-16T05:02:00.659Z,0.00
2017-03-16T05:03:01.165Z,0.00
2017-03-16T05:04:01.840Z,0.00
2017-03-16T05:05:02.224Z,0.00
2017-03-16T05:06:02.761Z,0.00
2017-03-16T05:07:03.297Z,0.00
2017-03-16T05:08:03.824Z,0.00
2017-03-16T05:09:04.369Z,0.00
2017-03-16T05:10:04.897Z,0.00
2017-03-16T05:11:05.460Z,0.00
2017-03-16T05:12:05.960Z,0.00
2017-03-16T05:13:06.493Z,0.00
2017-03-16T05:14:07.028Z,0.00
2017-03-16T05:15:07.560Z,0.00
2017-03-16T05:16:08.093Z,0.00
2017-03-16T05:17:08.625Z,0.00
2017-03-16T05:18:09.159Z,0.00
2017-03-16T05:19:09.699Z,0.00
2017-03-16T05:20:10.222Z,0.00
2017-03-16T05:21:10.754Z,0.00
2017-03-16T05:22:11.292Z,0.00
2017-03-16T05:23:11.820Z,0.00
2017-03-16T05:24:12.358Z,0.00
2017-03-16T05:25:12.896Z,0.00
2017-03-16T05:26:13.432Z,0.00
2017-03-16T05:27:13.964Z,0.00
2017-03-16T05:28:14.497Z,0.00
2017-03-16T05:29:15.031Z,0.00
2017-03-16T05:30:15.566Z,0.00
2017-03-16T05:31:16.099Z,0.00
2017-03-16T05:32:16.633Z,0.00
2017-03-16T05:33:17.175Z,0.00
2017-03-16T05:34:17.698Z,0.00
2017-03-16T05:35:18.241Z,0.00
2017-03-16T05:36:18.763Z,0.00
2017-03-16T05:37:19.293Z,0.00
2017-03-16T05:38:19.827Z,0.00
2017-03-16T05:39:20.510Z,0.00
2017-03-16T05:40:20.892Z,0.00
2017-03-16T05:41:21.434Z,0.00
2017-03-16T05:42:21.959Z,1.00
2017-03-16T05:43:22.517Z,1.00
2017-03-16T05:44:23.027Z,1.00
2017-03-16T05:45:23.559Z,1.00
2017-03-16T05:46:24.093Z,1.00
2017-03-16T05:47:24.626Z,1.00
2017-03-16T05:48:25.154Z,1.00
2017-03-16T05:49:25.697Z,1.00
2017-03-16T05:50:26.221Z,1.00
2017-03-16T05:51:26.755Z,1.00
2017-03-16T05:52:27.431Z,2.00
2017-03-16T05:53:27.812Z,2.00
2017-03-16T05:54:28.351Z,2.00
2017-03-16T05:55:28.880Z,2.00
2017-03-16T05:56:29.412Z,2.00
2017-03-16T05:57:29.944Z,2.00
2017-03-16T05:58:30.480Z,2.00
2017-03-16T05:59:31.018Z,2.00
2017-03-16T06:00:31.544Z,2.00
2017-03-16T06:01:32.077Z,2.00
2017-03-16T06:02:32.610Z,2.00
2017-03-16T06:03:33.153Z,3.00
2017-03-16T06:04:33.681Z,3.00
2017-03-16T06:05:34.224Z,3.00
2017-03-16T06:06:34.754Z,3.00
2017-03-16T06:07:35.288Z,3.00
2017-03-16T06:08:35.825Z,4.00
2017-03-16T06:09:36.368Z,4.00
2017-03-16T06:10:36.895Z,4.00
2017-03-16T06:11:37.423Z,4.00
2017-03-16T06:12:37.963Z,4.00
2017-03-16T06:13:38.502Z,4.00
2017-03-16T06:14:39.026Z,4.00
2017-03-16T06:15:39.554Z,4.00
2017-03-16T06:16:40.088Z,5.00
2017-03-16T06:17:40.620Z,5.00
2017-03-16T06:18:41.156Z,5.00
2017-03-16T06:19:41.687Z,5.00
2017-03-16T06:20:42.220Z,5.00
2017-03-16T06:21:42.758Z,5.00
2017-03-16T06:22:43.282Z,5.00
2017-03-16T06:23:43.964Z,5.00
2017-03-16T06:24:44.350Z,6.00
2017-03-16T06:25:45.027Z,6.00
2017-03-16T06:26:45.415Z,6.00
2017-03-16T06:27:45.949Z,6.00
2017-03-16T06:28:46.484Z,6.00
2017-03-16T06:29:47.014Z,6.00
2017-03-16T06:30:47.551Z,6.00
2017-03-16T06:31:48.081Z,7.00
2017-03-16T06:32:48.617Z,8.00
2017-03-16T06:33:49.146Z,8.00
2017-03-16T06:34:49.679Z,7.00
2017-03-16T06:35:50.209Z,7.00
2017-03-16T06:36:50.741Z,7.00
2017-03-16T06:37:51.283Z,7.00
2017-03-16T06:38:51.807Z,7.00
2017-03-16T06:39:52.338Z,8.00
2017-03-16T06:40:52.874Z,8.00
2017-03-16T06:41:53.406Z,8.00
2017-03-16T06:42:53.940Z,8.00
2017-03-16T06:43:54.470Z,8.00
2017-03-16T06:44:55.007Z,8.00
2017-03-16T06:45:55.540Z,9.00
2017-03-16T06:46:56.094Z,9.00
2017-03-16T06:47:56.609Z,9.00
2017-03-16T06:48:57.147Z,9.00
2017-03-16T06:49:57.684Z,9.00
2017-03-16T06:50:58.220Z,10.00
2017-03-16T06:51:58.762Z,10.00
2017-03-16T06:52:59.289Z,10.00
2017-03-16T06:53:59.820Z,10.00
2017-03-16T06:55:00.369Z,10.00
2017-03-16T06:56:00.890Z,10.00
2017-03-16T06:57:01.423Z,11.00
2017-03-16T06:58:01.953Z,11.00
2017-03-16T06:59:02.482Z,11.00
2017-03-16T07:00:03.013Z,11.00
2017-03-16T07:01:03.690Z,11.00
2017-03-16T07:02:04.076Z,12.00
2017-03-16T07:03:04.755Z,13.00
2017-03-16T07:04:05.160Z,15.00
2017-03-16T07:05:05.672Z,17.00
2017-03-16T07:06:06.200Z,19.00
2017-03-16T07:07:06.740Z,20.00
2017-03-16T07:08:07.300Z,21.00
2017-03-16T07:09:07.799Z,21.00
2017-03-16T07:10:08.330Z,21.00
2017-03-16T07:11:09.013Z,23.00
2017-03-16T07:12:09.400Z,23.00
2017-03-16T07:13:09.933Z,23.00
2017-03-16T07:14:10.616Z,24.00
2017-03-16T07:15:10.999Z,25.00
2017-03-16T07:16:11.529Z,25.00
2017-03-16T07:17:12.061Z,25.00
2017-03-16T07:18:12.592Z,26.00
2017-03-16T07:19:13.126Z,26.00
2017-03-16T07:20:13.668Z,26.00
2017-03-16T07:21:14.190Z,27.00
2017-03-16T07:22:14.745Z,27.00
2017-03-16T07:23:15.259Z,27.00
2017-03-16T07:24:15.787Z,27.00
2017-03-16T07:25:16.314Z,28.00
2017-03-16T07:26:16.845Z,28.00
2017-03-16T07:27:17.379Z,28.00
2017-03-16T07:28:17.920Z,28.00
2017-03-16T07:29:18.453Z,29.00
2017-03-16T07:30:18.988Z,29.00
2017-03-16T07:31:19.527Z,29.00
2017-03-16T07:32:20.077Z,29.00
2017-03-16T07:33:20.600Z,29.00
2017-03-16T07:34:21.143Z,29.00
2017-03-16T07:35:21.667Z,29.00
2017-03-16T07:36:22.198Z,30.00
2017-03-16T07:37:22.735Z,30.00
2017-03-16T07:38:23.422Z,30.00
2017-03-16T07:39:23.800Z,29.00
2017-03-16T07:40:24.355Z,31.00
2017-03-16T07:41:24.862Z,30.00
2017-03-16T07:42:25.405Z,31.00
2017-03-16T07:43:25.932Z,31.00
2017-03-16T07:44:26.459Z,31.00
2017-03-16T07:45:27.002Z,31.00
2017-03-16T07:46:27.527Z,32.00
2017-03-16T07:47:28.058Z,32.00
2017-03-16T07:48:28.619Z,32.00
2017-03-16T07:49:29.126Z,32.00
2017-03-16T07:50:29.664Z,32.00
2017-03-16T07:51:30.191Z,34.00
2017-03-16T07:52:30.722Z,31.00
2017-03-16T07:53:31.256Z,32.00
2017-03-16T07:54:31.794Z,33.00
2017-03-16T07:55:32.319Z,33.00
2017-03-16T07:56:32.853Z,33.00
2017-03-16T07:57:33.388Z,33.00
2017-03-16T07:58:34.067Z,33.00
2017-03-16T07:59:34.451Z,33.00
2017-03-16T08:00:34.978Z,33.00
2017-03-16T08:01:35.516Z,33.00
2017-03-16T08:02:36.047Z,34.00
2017-03-16T08:03:36.582Z,34.00
2017-03-16T08:04:37.108Z,34.00
2017-03-16T08:05:37.645Z,34.00
2017-03-16T08:06:38.184Z,34.00
2017-03-16T08:07:38.711Z,34.00
2017-03-16T08:08:39.242Z,34.00
2017-03-16T08:09:39.777Z,34.00
2017-03-16T08:10:40.311Z,35.00
2017-03-16T08:11:40.851Z,35.00
2017-03-16T08:12:41.413Z,35.00
2017-03-16T08:13:41.923Z,35.00
2017-03-16T08:14:42.456Z,35.00
2017-03-16T08:15:42.990Z,35.00
2017-03-16T08:16:43.524Z,35.00
2017-03-16T08:17:44.052Z,35.00
2017-03-16T08:18:44.586Z,35.00
2017-03-16T08:19:45.116Z,35.00
2017-03-16T08:20:45.647Z,34.00
2017-03-16T08:21:46.204Z,33.00
2017-03-16T08:22:46.715Z,34.00
2017-03-16T08:23:47.249Z,36.00
2017-03-16T08:24:47.788Z,35.00
2017-03-16T08:25:48.321Z,36.00
2017-03-16T08:26:48.849Z,36.00
2017-03-16T08:27:49.380Z,36.00
2017-03-16T08:28:49.909Z,36.00
2017-03-16T08:29:50.446Z,36.00
2017-03-16T08:30:50.972Z,37.00
2017-03-16T08:31:51.511Z,38.00
2017-03-16T08:32:52.189Z,37.00
2017-03-16T08:33:52.567Z,38.00
2017-03-16T08:34:53.098Z,37.00
2017-03-16T08:35:53.638Z,37.00
2017-03-16T08:36:54.170Z,36.00
2017-03-16T08:37:54.703Z,37.00
2017-03-16T08:38:55.240Z,34.00
2017-03-16T08:39:55.789Z,34.00
2017-03-16T08:40:56.318Z,34.00
2017-03-16T08:41:56.856Z,32.00
2017-03-16T08:42:57.388Z,27.00
2017-03-16T08:43:57.932Z,23.00
2017-03-16T08:44:58.470Z,26.00
2017-03-16T08:45:59.011Z,27.00
2017-03-16T08:46:59.701Z,30.00
2017-03-16T08:48:00.095Z,29.00
2017-03-16T08:49:00.630Z,31.00
2017-03-16T08:50:01.171Z,32.00
2017-03-16T08:51:01.707Z,31.00
2017-03-16T08:52:02.272Z,33.00
2017-03-16T08:53:02.775Z,33.00
2017-03-16T08:54:03.316Z,33.00
2017-03-16T08:55:03.856Z,32.00
2017-03-16T08:56:04.386Z,32.00
2017-03-16T08:57:04.921Z,32.00
2017-03-16T08:58:05.450Z,33.00
2017-03-16T08:59:05.977Z,32.00
2017-03-16T09:00:06.515Z,32.00
2017-03-16T09:01:07.044Z,32.00
2017-03-16T09:02:07.578Z,32.00
2017-03-16T09:03:08.111Z,31.00
2017-03-16T09:04:08.641Z,30.00
2017-03-16T09:05:09.170Z,31.00
2017-03-16T09:06:09.713Z,32.00
2017-03-16T09:07:10.243Z,32.00
2017-03-16T09:08:10.773Z,31.00
2017-03-16T09:09:11.304Z,31.00
2017-03-16T09:10:11.838Z,31.00
2017-03-16T09:11:12.523Z,28.00
2017-03-16T09:12:12.906Z,29.00
2017-03-16T09:13:13.437Z,30.00
2017-03-16T09:14:13.971Z,30.00
2017-03-16T09:15:14.650Z,29.00
2017-03-16T09:16:15.034Z,31.00
2017-03-16T09:17:15.565Z,31.00
2017-03-16T09:18:16.102Z,37.00
2017-03-16T09:19:16.625Z,37.00
2017-03-16T09:20:17.161Z,38.00
2017-03-16T09:21:17.843Z,39.00
2017-03-16T09:22:18.225Z,37.00
2017-03-16T09:23:18.765Z,41.00
2017-03-16T09:24:19.295Z,41.00
2017-03-16T09:25:19.822Z,42.00
2017-03-16T09:26:20.353Z,42.00
2017-03-16T09:27:20.884Z,43.00
2017-03-16T09:28:21.426Z,42.00
2017-03-16T09:29:21.954Z,43.00
2017-03-16T09:30:22.487Z,43.00
2017-03-16T09:31:23.019Z,42.00
2017-03-16T09:32:23.556Z,42.00
2017-03-16T09:33:24.094Z,42.00
2017-03-16T09:34:24.629Z,44.00
2017-03-16T09:35:25.165Z,44.00
2017-03-16T09:36:25.705Z,43.00
2017-03-16T09:37:26.242Z,42.00
2017-03-16T09:38:26.772Z,42.00
2017-03-16T09:39:27.307Z,42.00
2017-03-16T09:40:27.842Z,45.00
2017-03-16T09:41:28.368Z,44.00
2017-03-16T09:42:28.902Z,44.00
2017-03-16T09:43:29.441Z,44.00
2017-03-16T09:44:30.264Z,44.00
2017-03-16T09:45:30.495Z,44.00
2017-03-16T09:46:31.024Z,45.00
2017-03-16T09:47:31.563Z,45.00
2017-03-16T09:48:32.090Z,45.00
2017-03-16T09:49:32.621Z,45.00
2017-03-16T09:50:33.155Z,45.00
2017-03-16T09:51:33.685Z,45.00
2017-03-16T09:52:34.218Z,45.00
2017-03-16T09:53:34.749Z,45.00
2017-03-16T09:54:35.286Z,45.00
2017-03-16T09:55:35.817Z,45.00
2017-03-16T09:56:36.352Z,46.00
2017-03-16T09:57:36.883Z,46.00
2017-03-16T09:58:37.415Z,46.00
2017-03-16T09:59:37.951Z,46.00
2017-03-16T10:00:38.485Z,47.00
2017-03-16T10:01:39.016Z,47.00
2017-03-16T10:02:39.557Z,46.00
2017-03-16T10:03:40.084Z,46.00
2017-03-16T10:04:40.609Z,46.00
2017-03-16T10:05:41.140Z,46.00
2017-03-16T10:06:41.674Z,46.00
2017-03-16T10:07:42.220Z,46.00
2017-03-16T10:08:42.734Z,46.00
2017-03-16T10:09:43.267Z,46.00
2017-03-16T10:10:43.800Z,47.00
2017-03-16T10:11:44.331Z,47.00
2017-03-16T10:12:44.865Z,47.00
2017-03-16T10:13:45.396Z,47.00
2017-03-16T10:14:45.936Z,47.00
2017-03-16T10:15:46.465Z,47.00
2017-03-16T10:16:47.005Z,47.00
2017-03-16T10:17:47.544Z,47.00
2017-03-16T10:18:48.082Z,47.00
2017-03-16T10:19:48.621Z,48.00
2017-03-16T10:20:49.155Z,48.00
2017-03-16T10:21:49.694Z,48.00
2017-03-16T10:22:50.222Z,47.00
2017-03-16T10:23:50.905Z,47.00
2017-03-16T10:24:51.288Z,47.00
2017-03-16T10:25:51.820Z,48.00
2017-03-16T10:26:52.351Z,48.00
2017-03-16T10:27:52.885Z,48.00
2017-03-16T10:28:53.411Z,47.00
2017-03-16T10:29:53.940Z,47.00
2017-03-16T10:30:54.478Z,47.00
2017-03-16T10:31:55.005Z,46.00
2017-03-16T10:32:55.687Z,47.00
2017-03-16T10:33:56.067Z,49.00
2017-03-16T10:34:56.600Z,48.00
2017-03-16T10:35:57.144Z,48.00
2017-03-16T10:36:57.826Z,48.00
2017-03-16T10:37:58.194Z,44.00
2017-03-16T10:38:58.726Z,46.00
2017-03-16T10:39:59.256Z,46.00
2017-03-16T10:40:59.796Z,40.00
2017-03-16T10:42:00.328Z,40.00
2017-03-16T10:43:00.861Z,44.00
2017-03-16T10:44:01.387Z,46.00
2017-03-16T10:45:01.924Z,48.00
2017-03-16T10:46:02.451Z,46.00
2017-03-16T10:47:02.981Z,46.00
2017-03-16T10:48:03.518Z,45.00
2017-03-16T10:49:04.048Z,46.00
2017-03-16T10:50:04.728Z,45.00
2017-03-16T10:51:05.116Z,46.00
2017-03-16T10:52:05.652Z,45.00
2017-03-16T10:53:06.175Z,46.00
2017-03-16T10:54:06.716Z,45.00
2017-03-16T10:55:07.234Z,47.00
2017-03-16T10:56:07.768Z,48.00
2017-03-16T10:57:08.299Z,48.00
2017-03-16T10:58:08.834Z,47.00
2017-03-16T10:59:09.373Z,48.00
2017-03-16T11:00:09.912Z,47.00
2017-03-16T11:01:10.442Z,47.00
2017-03-16T11:02:10.972Z,48.00
2017-03-16T11:03:11.511Z,48.00
2017-03-16T11:04:12.195Z,48.00
2017-03-16T11:05:12.578Z,48.00
2017-03-16T11:06:13.111Z,46.00
2017-03-16T11:07:13.647Z,47.00
2017-03-16T11:08:14.178Z,47.00
2017-03-16T11:09:14.709Z,48.00
2017-03-16T11:10:15.238Z,48.00
2017-03-16T11:11:15.772Z,48.00
2017-03-16T11:12:16.303Z,48.00
2017-03-16T11:13:16.838Z,47.00
2017-03-16T11:14:17.368Z,47.00
2017-03-16T11:15:17.897Z,49.00
2017-03-16T11:16:18.434Z,49.00
2017-03-16T11:17:18.965Z,50.00
2017-03-16T11:18:19.495Z,50.00
2017-03-16T11:19:20.026Z,50.00
2017-03-16T11:20:20.558Z,51.00
2017-03-16T11:21:21.091Z,51.00
2017-03-16T11:22:21.629Z,52.00
2017-03-16T11:23:22.157Z,51.00
2017-03-16T11:24:22.842Z,51.00
2017-03-16T11:25:23.223Z,51.00
2017-03-16T11:26:23.785Z,51.00
2017-03-16T11:27:24.288Z,50.00
2017-03-16T11:28:24.817Z,51.00
2017-03-16T11:29:25.347Z,50.00
2017-03-16T11:30:25.882Z,50.00
2017-03-16T11:31:26.416Z,52.00
2017-03-16T11:32:26.951Z,53.00
2017-03-16T11:33:27.476Z,53.00
2017-03-16T11:34:28.003Z,54.00
2017-03-16T11:35:28.540Z,54.00
2017-03-16T11:36:29.067Z,55.00
2017-03-16T11:37:29.604Z,56.00
2017-03-16T11:38:30.131Z,56.00
2017-03-16T11:39:30.667Z,53.00
2017-03-16T11:40:31.205Z,53.00
2017-03-16T11:41:31.740Z,51.00
2017-03-16T11:42:32.274Z,51.00
2017-03-16T11:43:32.805Z,51.00
2017-03-16T11:44:33.348Z,52.00
2017-03-16T11:45:33.875Z,52.00
2017-03-16T11:46:34.406Z,54.00
2017-03-16T11:47:34.938Z,54.00
2017-03-16T11:48:35.473Z,54.00
2017-03-16T11:49:36.007Z,53.00
2017-03-16T11:50:36.536Z,56.00
2017-03-16T11:51:37.070Z,57.00
2017-03-16T11:52:37.607Z,56.00
2017-03-16T11:53:38.132Z,56.00
2017-03-16T11:54:38.665Z,56.00
2017-03-16T11:55:39.197Z,57.00
2017-03-16T11:56:39.722Z,58.00
2017-03-16T11:57:40.260Z,58.00
2017-03-16T11:58:40.789Z,59.00
2017-03-16T11:59:41.326Z,59.00
2017-03-16T12:00:41.858Z,58.00
2017-03-16T12:01:42.392Z,58.00
2017-03-16T12:02:42.922Z,58.00
2017-03-16T12:03:43.456Z,58.00
2017-03-16T12:04:43.993Z,59.00
2017-03-16T12:05:44.520Z,59.00
2017-03-16T12:06:45.056Z,60.00
2017-03-16T12:07:45.587Z,59.00
2017-03-16T12:08:46.115Z,59.00
2017-03-16T12:09:46.655Z,60.00
2017-03-16T12:10:47.183Z,60.00
2017-03-16T12:11:47.715Z,58.00
2017-03-16T12:12:48.398Z,59.00
2017-03-16T12:13:48.775Z,59.00
2017-03-16T12:14:49.311Z,58.00
2017-03-16T12:15:49.849Z,60.00
2017-03-16T12:16:50.396Z,61.00
2017-03-16T12:17:50.901Z,62.00
2017-03-16T12:18:51.442Z,62.00
2017-03-16T12:19:51.961Z,63.00
2017-03-16T12:20:52.516Z,63.00
2017-03-16T12:21:53.036Z,63.00
2017-03-16T12:22:53.572Z,63.00
2017-03-16T12:23:54.105Z,62.00
2017-03-16T12:24:54.642Z,62.00
2017-03-16T12:25:55.176Z,63.00
2017-03-16T12:26:55.706Z,65.00
2017-03-16T12:27:56.241Z,64.00
2017-03-16T12:28:56.771Z,64.00
2017-03-16T12:29:57.310Z,66.00
2017-03-16T12:30:57.838Z,66.00
2017-03-16T12:31:58.376Z,67.00
2017-03-16T12:32:58.901Z,67.00
2017-03-16T12:33:59.435Z,68.00
2017-03-16T12:34:59.970Z,68.00
2017-03-16T12:36:00.499Z,68.00
2017-03-16T12:37:01.039Z,69.00
2017-03-16T12:38:01.587Z,69.00
2017-03-16T12:39:02.099Z,70.00
2017-03-16T12:40:02.626Z,70.00
2017-03-16T12:41:03.157Z,69.00
2017-03-16T12:42:03.695Z,70.00
2017-03-16T12:43:04.222Z,71.00
2017-03-16T12:44:04.753Z,71.00
2017-03-16T12:45:05.283Z,70.00
2017-03-16T12:46:05.824Z,70.00
2017-03-16T12:47:06.502Z,70.00
2017-03-16T12:48:06.886Z,69.00
2017-03-16T12:49:07.415Z,70.00
2017-03-16T12:50:07.951Z,68.00
2017-03-16T12:51:08.481Z,66.00
2017-03-16T12:52:09.018Z,66.00
2017-03-16T12:53:09.556Z,66.00
2017-03-16T12:54:10.087Z,67.00
2017-03-16T12:55:10.613Z,67.00
2017-03-16T12:56:11.148Z,69.00
2017-03-16T12:57:11.680Z,70.00
2017-03-16T12:58:12.212Z,70.00
2017-03-16T12:59:12.745Z,70.00
2017-03-16T13:00:13.275Z,70.00
2017-03-16T13:01:13.808Z,71.00
2017-03-16T13:02:14.334Z,72.00
2017-03-16T13:03:14.869Z,71.00
2017-03-16T13:04:15.410Z,71.00
2017-03-16T13:05:15.956Z,69.00
2017-03-16T13:06:16.482Z,69.00
2017-03-16T13:07:17.017Z,69.00
2017-03-16T13:08:17.549Z,70.00
2017-03-16T13:09:18.083Z,71.00
2017-03-16T13:10:18.609Z,67.00
2017-03-16T13:11:19.151Z,68.00
2017-03-16T13:12:19.677Z,69.00